Time;durP1;ratioP1;P1;durP2;ratioP2;P2;SDS_P1;SDS_P2;PMS_P1;PMS_P2;Temp;Humidity;BMP_temperature;BMP_pressure;BME280_temperature;BME280_humidity;BME280_pressure;Samples;Min_cycle;Max_cycle;Signal;HPM_P1;HPM_P2
2023/03/25 00:01:31;;;;;;;8.77;6.15;;;14.50;62.90;;;;;;5071834;28;20020;-65
2023/03/25 00:03:59;;;;;;;7.00;5.63;;;14.50;63.10;;;;;;5080342;28;20456;-64
2023/03/25 00:06:27;;;;;;;7.80;6.00;;;14.50;63.30;;;;;;5071669;28;20041;-63
2023/03/25 00:08:53;;;;;;;9.98;6.05;;;14.40;63.10;;;;;;5071579;28;20035;-64
2023/03/25 00:11:19;;;;;;;6.93;5.75;;;14.40;63.20;;;;;;5071515;28;20378;-60
2023/03/25 00:13:47;;;;;;;6.57;5.28;;;14.40;63.30;;;;;;5073093;28;20090;-59
2023/03/25 00:16:13;;;;;;;7.55;5.68;;;14.40;63.20;;;;;;5075245;28;20107;-64
2023/03/25 00:18:39;;;;;;;7.60;6.32;;;14.40;63.30;;;;;;5075442;28;20028;-65
2023/03/25 00:21:09;;;;;;;6.93;5.35;;;14.40;63.20;;;;;;5070005;28;20032;-55
2023/03/25 00:23:36;;;;;;;7.78;5.72;;;14.40;63.20;;;;;;5076130;28;20131;-53
2023/03/25 00:26:02;;;;;;;6.88;5.57;;;14.40;63.20;;;;;;5074389;28;20182;-52
2023/03/25 00:28:30;;;;;;;7.68;5.93;;;14.40;63.40;;;;;;5075131;28;20025;-52
2023/03/25 00:30:59;;;;;;;7.97;5.55;;;14.40;63.30;;;;;;5075083;28;20541;-64
2023/03/25 00:33:25;;;;;;;6.47;5.32;;;14.40;63.30;;;;;;5067064;28;20448;-64
2023/03/25 00:35:53;;;;;;;7.43;5.85;;;14.40;63.50;;;;;;5069197;28;20085;-63
2023/03/25 00:38:19;;;;;;;6.95;5.85;;;14.30;63.30;;;;;;5074861;28;20029;-64
2023/03/25 00:40:48;;;;;;;8.98;7.00;;;14.30;63.40;;;;;;5074835;28;20056;-63
2023/03/25 00:43:13;;;;;;;9.73;6.70;;;14.30;63.40;;;;;;5063821;28;20024;-65
2023/03/25 00:45:39;;;;;;;8.35;6.43;;;14.20;63.40;;;;;;5074176;28;20041;-61
2023/03/25 00:48:05;;;;;;;9.52;6.47;;;14.20;63.40;;;;;;5076667;28;20449;-61
2023/03/25 00:50:31;;;;;;;8.70;6.28;;;14.20;63.40;;;;;;5072937;28;20060;-61
2023/03/25 00:52:56;;;;;;;7.53;6.00;;;14.10;63.60;;;;;;5073215;28;20036;-61
2023/03/25 00:55:22;;;;;;;10.30;6.82;;;14.10;63.60;;;;;;5080998;28;20458;-61
2023/03/25 00:57:47;;;;;;;8.82;6.40;;;14.20;63.70;;;;;;5074295;28;20060;-60
2023/03/25 01:00:15;;;;;;;8.07;6.45;;;14.20;63.70;;;;;;5074651;28;20040;-64
2023/03/25 01:02:42;;;;;;;8.18;5.93;;;14.10;63.60;;;;;;5075698;28;20108;-64
2023/03/25 01:05:10;;;;;;;9.07;6.78;;;14.10;63.60;;;;;;5074720;28;20032;-63
2023/03/25 01:07:40;;;;;;;9.70;6.65;;;14.10;63.60;;;;;;5073767;28;20032;-64
2023/03/25 01:10:07;;;;;;;8.03;6.67;;;14.10;63.60;;;;;;5073312;28;20033;-63
2023/03/25 01:12:32;;;;;;;8.50;6.20;;;14.10;63.50;;;;;;5065623;28;20346;-65
2023/03/25 01:14:58;;;;;;;8.60;6.47;;;14.10;63.40;;;;;;5074345;28;20103;-63
2023/03/25 01:17:24;;;;;;;8.48;6.43;;;14.00;63.50;;;;;;5074446;28;20405;-61
2023/03/25 01:19:50;;;;;;;9.27;6.47;;;14.10;63.50;;;;;;5074192;28;20036;-61
2023/03/25 01:22:15;;;;;;;7.85;6.30;;;14.00;63.40;;;;;;5073892;28;20029;-59
2023/03/25 01:24:41;;;;;;;7.78;6.30;;;14.00;63.40;;;;;;5079112;28;20098;-59
2023/03/25 01:27:07;;;;;;;8.85;6.38;;;14.00;63.40;;;;;;5073476;28;20032;-59
2023/03/25 01:29:32;;;;;;;7.60;5.78;;;14.00;63.40;;;;;;5073758;28;20101;-59
2023/03/25 01:31:58;;;;;;;9.30;6.43;;;14.00;63.30;;;;;;5074684;28;20021;-59
2023/03/25 01:34:24;;;;;;;7.90;6.32;;;13.90;63.20;;;;;;5070185;28;20032;-58
2023/03/25 01:36:49;;;;;;;7.90;6.35;;;13.90;63.20;;;;;;5074265;28;20032;-58
2023/03/25 01:39:18;;;;;;;7.82;6.10;;;13.90;63.20;;;;;;5073314;28;20402;-58
2023/03/25 01:41:45;;;;;;;6.70;5.40;;;13.90;63.20;;;;;;5074175;28;20063;-59
2023/03/25 01:44:17;;;;;;;9.40;6.75;;;13.90;63.20;;;;;;5080964;28;20064;-59
2023/03/25 01:46:44;;;;;;;;;;;13.90;63.10;;;;;;5078562;28;20082;-58
2023/03/25 01:49:15;;;;;;;6.00;5.40;;;13.90;63.00;;;;;;5067667;28;19923;-59
2023/03/25 01:51:44;;;;;;;8.60;6.93;;;13.90;63.00;;;;;;5072863;28;20039;-52
2023/03/25 01:54:11;;;;;;;9.23;6.47;;;13.90;63.00;;;;;;5072793;28;20028;-53
2023/03/25 01:56:41;;;;;;;7.18;5.82;;;13.90;63.10;;;;;;5076290;28;20067;-59
2023/03/25 01:59:09;;;;;;;7.57;6.15;;;13.90;63.00;;;;;;5073296;28;20047;-57
2023/03/25 02:01:36;;;;;;;6.78;5.70;;;13.90;62.90;;;;;;5072981;28;20044;-52
2023/03/25 02:04:08;;;;;;;7.90;6.28;;;13.90;62.80;;;;;;5073576;28;20085;-50
2023/03/25 02:06:52;;;;;;;8.10;6.10;;;13.90;62.70;;;;;;5073000;28;20024;-51
2023/03/25 02:09:21;;;;;;;8.35;6.85;;;13.90;62.70;;;;;;5070192;28;20044;-54
2023/03/25 02:11:47;;;;;;;7.75;6.30;;;13.90;62.50;;;;;;5072975;28;20351;-64
2023/03/25 02:14:23;;;;;;;7.00;6.03;;;13.90;62.30;;;;;;5073483;28;20120;-63
2023/03/25 02:17:13;;;;;;;8.15;6.03;;;13.90;62.20;;;;;;5073238;28;20033;-51
2023/03/25 02:19:45;;;;;;;7.93;6.05;;;13.90;62.30;;;;;;5073207;28;20390;-51
2023/03/25 02:22:26;;;;;;;7.85;6.20;;;13.90;62.10;;;;;;5070685;28;20059;-64
2023/03/25 02:25:14;;;;;;;7.82;6.30;;;13.90;62.00;;;;;;5076595;28;20036;-66
2023/03/25 02:28:05;;;;;;;7.50;6.10;;;13.90;62.00;;;;;;5064392;28;20036;-59
2023/03/25 02:30:59;;;;;;;7.63;6.20;;;13.90;62.00;;;;;;5070875;28;20033;-53
2023/03/25 02:33:28;;;;;;;7.80;5.88;;;13.90;61.90;;;;;;5068583;28;20033;-51
2023/03/25 02:36:05;;;;;;;8.48;5.97;;;13.90;62.00;;;;;;5072595;28;20070;-51
2023/03/25 02:38:40;;;;;;;8.20;6.43;;;13.90;61.90;;;;;;5062744;28;20036;-49
2023/03/25 02:41:16;;;;;;;8.63;6.18;;;13.90;61.80;;;;;;5071602;28;20032;-55
2023/03/25 02:43:48;;;;;;;9.18;6.20;;;13.90;61.80;;;;;;5062427;28;20387;-51
2023/03/25 02:46:16;;;;;;;8.27;6.35;;;13.90;61.60;;;;;;5072132;28;20036;-55
2023/03/25 02:49:10;;;;;;;9.77;6.63;;;13.90;61.50;;;;;;5072291;28;20052;-50
2023/03/25 02:51:44;;;;;;;8.32;6.82;;;13.90;61.40;;;;;;5072634;28;20024;-60
2023/03/25 02:54:12;;;;;;;8.88;6.38;;;13.80;61.20;;;;;;5071998;28;20024;-60
2023/03/25 02:56:42;;;;;;;8.35;6.47;;;13.80;61.10;;;;;;5079626;28;20032;-60
2023/03/25 02:59:13;;;;;;;7.63;5.85;;;13.80;61.00;;;;;;5072133;28;20107;-60
2023/03/25 03:01:39;;;;;;;9.13;6.53;;;13.80;61.00;;;;;;5071620;28;20017;-65
2023/03/25 03:04:05;;;;;;;7.93;5.82;;;13.80;61.00;;;;;;5081365;28;20027;-65
2023/03/25 03:06:37;;;;;;;8.57;6.50;;;13.80;60.90;;;;;;5069102;28;20033;-65
2023/03/25 03:09:26;;;;;;;8.10;5.95;;;13.70;60.90;;;;;;5071660;28;20070;-65
2023/03/25 03:12:28;;;;;;;8.30;6.07;;;13.70;60.90;;;;;;5064561;28;20075;-53
2023/03/25 03:15:18;;;;;;;7.63;5.80;;;13.70;60.80;;;;;;5071969;28;20028;-49
2023/03/25 03:17:49;;;;;;;7.43;6.00;;;13.70;60.90;;;;;;5061576;28;20459;-52
2023/03/25 03:20:56;;;;;;;6.50;5.53;;;13.70;60.80;;;;;;5071795;28;20036;-64
2023/03/25 03:23:22;;;;;;;9.05;6.18;;;13.70;60.50;;;;;;5044251;28;20054;-65
2023/03/25 03:26:25;;;;;;;7.93;6.00;;;13.70;60.50;;;;;;5071962;28;20029;-66
2023/03/25 03:29:02;;;;;;;8.15;6.32;;;13.70;60.40;;;;;;5062534;28;20112;-65
2023/03/25 03:31:40;;;;;;;7.00;5.68;;;13.60;60.30;;;;;;5071616;28;20020;-60
2023/03/25 03:34:17;;;;;;;8.40;6.28;;;13.60;60.30;;;;;;5067288;28;20095;-60
2023/03/25 03:36:49;;;;;;;8.38;6.63;;;13.60;60.30;;;;;;5072704;28;20139;-60
2023/03/25 03:39:21;;;;;;;9.50;7.40;;;13.60;60.10;;;;;;5071255;28;20257;-59
2023/03/25 03:41:52;;;;;;;9.13;6.68;;;13.60;60.20;;;;;;5064963;28;20025;-60
2023/03/25 03:44:21;;;;;;;8.52;6.78;;;13.50;60.10;;;;;;5071998;28;20037;-59
2023/03/25 03:47:09;;;;;;;8.02;6.13;;;13.50;60.10;;;;;;5071686;28;20039;-57
2023/03/25 03:49:41;;;;;;;8.20;6.13;;;13.50;60.10;;;;;;5071372;28;20024;-52
2023/03/25 03:52:16;;;;;;;8.30;6.25;;;13.50;60.20;;;;;;5071854;28;20075;-59
2023/03/25 03:54:53;;;;;;;6.93;5.95;;;13.50;60.10;;;;;;5072079;28;20560;-60
2023/03/25 03:57:44;;;;;;;9.52;7.00;;;13.50;60.00;;;;;;5071195;28;20074;-65
2023/03/25 04:00:16;;;;;;;7.97;6.53;;;13.50;60.00;;;;;;5071677;28;20435;-66
2023/03/25 04:02:49;;;;;;;9.55;6.95;;;13.50;60.30;;;;;;5075596;28;20024;-63
2023/03/25 04:05:18;;;;;;;9.43;6.95;;;13.50;60.00;;;;;;5077643;28;20048;-62
2023/03/25 04:08:16;;;;;;;9.02;6.78;;;13.50;60.00;;;;;;5071860;28;20028;-66
2023/03/25 04:10:57;;;;;;;10.20;6.72;;;13.40;60.00;;;;;;5071412;28;20078;-48
2023/03/25 04:13:30;;;;;;;9.07;6.07;;;13.40;60.00;;;;;;5071153;28;20032;-52
2023/03/25 04:15:59;;;;;;;8.32;6.28;;;13.50;60.10;;;;;;5071587;28;20036;-50
2023/03/25 04:18:27;;;;;;;9.95;6.82;;;13.50;60.20;;;;;;5071379;28;20110;-50
2023/03/25 04:20:53;;;;;;;8.50;6.18;;;13.50;60.10;;;;;;5071291;28;20025;-64
2023/03/25 04:23:20;;;;;;;8.63;6.93;;;13.40;60.00;;;;;;5074826;28;20089;-64
2023/03/25 04:25:48;;;;;;;8.30;6.55;;;13.50;60.10;;;;;;5071126;28;20051;-65
2023/03/25 04:28:16;;;;;;;8.98;6.82;;;13.40;60.10;;;;;;5070149;28;20027;-65
2023/03/25 04:30:44;;;;;;;10.52;6.57;;;13.40;60.10;;;;;;5070659;28;20032;-65
2023/03/25 04:33:11;;;;;;;10.63;7.00;;;13.50;60.30;;;;;;5070349;28;20032;-64
2023/03/25 04:35:37;;;;;;;10.50;7.95;;;13.50;60.30;;;;;;5072966;28;20475;-54
2023/03/25 04:38:04;;;;;;;8.82;7.35;;;13.50;60.40;;;;;;5070563;28;20043;-49
2023/03/25 04:40:30;;;;;;;9.15;6.88;;;13.50;60.30;;;;;;5070482;28;20063;-48
2023/03/25 04:42:56;;;;;;;8.93;7.47;;;13.60;60.40;;;;;;5070373;28;20068;-53
2023/03/25 04:45:21;;;;;;;10.27;7.60;;;13.60;60.50;;;;;;5070210;28;20033;-66
2023/03/25 04:47:48;;;;;;;10.10;7.43;;;13.60;60.60;;;;;;5070390;28;20459;-65
2023/03/25 04:50:26;;;;;;;9.93;7.93;;;13.70;60.60;;;;;;5071136;28;20032;-51
2023/03/25 04:52:56;;;;;;;11.13;8.73;;;13.80;60.70;;;;;;5070827;28;20032;-53
2023/03/25 04:55:22;;;;;;;12.13;9.80;;;13.80;60.60;;;;;;5077547;28;20024;-48
2023/03/25 04:57:50;;;;;;;12.52;9.63;;;13.90;60.60;;;;;;5072003;28;20021;-48
2023/03/25 05:00:21;;;;;;;11.73;9.50;;;13.90;60.50;;;;;;5071502;28;20028;-51
2023/03/25 05:02:52;;;;;;;13.35;8.90;;;14.00;60.50;;;;;;5081337;28;20028;-52
2023/03/25 05:05:21;;;;;;;11.90;8.80;;;14.00;60.30;;;;;;5074184;28;20507;-49
2023/03/25 05:07:53;;;;;;;13.48;8.77;;;14.00;60.30;;;;;;5074801;28;20028;-49
2023/03/25 05:10:21;;;;;;;16.40;10.63;;;14.10;60.30;;;;;;5074125;28;20025;-51
2023/03/25 05:12:47;;;;;;;17.65;9.98;;;14.10;60.30;;;;;;5074453;28;20066;-49
2023/03/25 05:15:15;;;;;;;15.07;9.18;;;14.10;60.30;;;;;;5074251;28;20097;-50
2023/03/25 05:17:42;;;;;;;15.45;10.23;;;14.10;60.30;;;;;;5074373;28;20056;-49
2023/03/25 05:20:10;;;;;;;14.02;9.70;;;14.20;60.40;;;;;;5073873;28;20492;-49
2023/03/25 05:22:36;;;;;;;17.77;11.20;;;14.30;60.40;;;;;;5056183;28;20032;-49
2023/03/25 05:25:07;;;;;;;17.00;11.25;;;14.40;60.40;;;;;;5070305;28;20028;-50
2023/03/25 05:27:34;;;;;;;15.30;10.15;;;14.50;60.10;;;;;;5073909;28;20044;-51
2023/03/25 05:29:59;;;;;;;16.38;10.63;;;14.70;60.20;;;;;;5073936;28;20032;-52
2023/03/25 05:32:28;;;;;;;15.05;9.98;;;14.80;60.00;;;;;;5072568;28;20042;-64
2023/03/25 05:34:55;;;;;;;12.82;9.20;;;14.90;59.80;;;;;;5072204;28;20029;-65
2023/03/25 05:37:20;;;;;;;12.85;9.18;;;15.00;59.70;;;;;;5073649;28;20464;-65
2023/03/25 05:39:46;;;;;;;11.38;8.48;;;15.20;59.70;;;;;;5073371;28;20024;-64
2023/03/25 05:42:12;;;;;;;11.35;9.23;;;15.30;59.60;;;;;;5073778;28;20033;-63
2023/03/25 05:44:45;;;;;;;11.18;8.27;;;15.40;59.40;;;;;;5073801;28;20036;-65
2023/03/25 05:47:12;;;;;;;12.55;9.27;;;15.60;59.40;;;;;;5073938;28;19916;-50
2023/03/25 05:49:38;;;;;;;12.10;9.55;;;15.70;59.20;;;;;;5072295;28;20028;-50
2023/03/25 05:52:04;;;;;;;11.93;9.50;;;15.80;59.00;;;;;;5072608;28;20024;-57
2023/03/25 05:54:29;;;;;;;12.20;9.07;;;15.80;58.90;;;;;;5072800;28;20479;-60
2023/03/25 05:56:55;;;;;;;10.68;9.02;;;15.90;58.70;;;;;;5081532;28;20058;-63
2023/03/25 05:59:21;;;;;;;11.27;8.75;;;15.90;58.70;;;;;;5073405;28;20024;-64
2023/03/25 06:01:48;;;;;;;14.35;9.82;;;15.90;58.70;;;;;;5073084;28;20153;-64
2023/03/25 06:04:15;;;;;;;12.60;9.75;;;15.90;58.80;;;;;;5076060;28;20032;-64
2023/03/25 06:06:41;;;;;;;12.75;10.43;;;15.90;58.80;;;;;;5073684;28;20089;-58
2023/03/25 06:09:07;;;;;;;12.70;10.05;;;15.90;58.80;;;;;;5073135;28;20017;-59
2023/03/25 06:11:36;;;;;;;12.90;10.38;;;15.90;58.80;;;;;;5072695;28;20467;-58
2023/03/25 06:14:04;;;;;;;14.23;10.63;;;15.90;58.90;;;;;;5073556;28;20039;-58
2023/03/25 06:16:31;;;;;;;14.40;10.80;;;16.00;58.80;;;;;;5072943;28;20376;-58
2023/03/25 06:19:00;;;;;;;15.07;11.20;;;16.00;58.80;;;;;;5060544;28;20020;-60
2023/03/25 06:21:34;;;;;;;13.55;10.98;;;16.00;58.90;;;;;;5072409;28;20024;-60
2023/03/25 06:24:00;;;;;;;13.98;11.57;;;16.00;58.80;;;;;;5062373;28;20049;-59
2023/03/25 06:26:26;;;;;;;15.50;11.40;;;16.00;58.90;;;;;;5071623;28;20138;-59
2023/03/25 06:28:53;;;;;;;12.85;10.68;;;16.00;58.90;;;;;;5073226;28;20027;-59
2023/03/25 06:31:21;;;;;;;15.40;11.00;;;16.00;58.90;;;;;;5073098;28;20028;-59
2023/03/25 06:33:49;;;;;;;13.75;10.27;;;16.00;59.10;;;;;;5069762;28;20102;-59
2023/03/25 06:36:17;;;;;;;13.88;10.20;;;16.00;59.10;;;;;;5071462;28;20059;-53
2023/03/25 06:38:48;;;;;;;13.55;10.93;;;16.00;59.10;;;;;;5072873;28;20032;-53
2023/03/25 06:41:16;;;;;;;12.57;10.13;;;16.00;59.40;;;;;;5072237;28;20461;-51
2023/03/25 06:43:42;;;;;;;14.45;11.35;;;16.00;59.30;;;;;;5071647;28;20111;-50
2023/03/25 06:46:07;;;;;;;14.30;10.68;;;16.00;59.30;;;;;;5073537;28;20127;-51
2023/03/25 06:48:33;;;;;;;12.40;10.07;;;16.00;60.00;;;;;;5072761;28;20036;-53
2023/03/25 06:50:59;;;;;;;14.23;10.57;;;16.00;59.40;;;;;;5072666;28;20052;-61
2023/03/25 06:53:24;;;;;;;13.43;10.82;;;16.00;59.30;;;;;;5070961;28;20028;-64
2023/03/25 06:55:50;;;;;;;12.82;10.15;;;16.00;59.50;;;;;;5078956;28;20119;-64
2023/03/25 06:58:16;;;;;;;13.13;10.85;;;16.00;59.60;;;;;;5071828;28;20060;-59
2023/03/25 07:00:41;;;;;;;14.05;11.10;;;15.90;59.60;;;;;;5069250;28;20501;-61
2023/03/25 07:03:08;;;;;;;13.40;10.43;;;15.90;59.70;;;;;;5072658;28;20032;-63
2023/03/25 07:05:34;;;;;;;14.48;11.60;;;15.90;59.90;;;;;;5071670;28;20041;-63
2023/03/25 07:08:00;;;;;;;12.23;10.38;;;15.80;60.00;;;;;;5071994;28;20029;-64
2023/03/25 07:10:25;;;;;;;15.88;11.98;;;15.80;60.10;;;;;;5072224;28;20032;-51
2023/03/25 07:12:51;;;;;;;12.40;10.32;;;15.80;60.20;;;;;;5069825;28;20077;-55
2023/03/25 07:15:17;;;;;;;14.15;11.00;;;15.80;60.60;;;;;;5060234;28;20064;-64
2023/03/25 07:17:42;;;;;;;14.25;11.18;;;15.80;60.70;;;;;;5072563;28;20077;-65
2023/03/25 07:20:09;;;;;;;14.95;11.45;;;15.80;60.70;;;;;;5071410;28;20024;-63
2023/03/25 07:22:35;;;;;;;14.82;11.50;;;15.90;61.00;;;;;;5071267;28;20365;-63
2023/03/25 07:25:00;;;;;;;15.27;11.70;;;15.90;61.00;;;;;;5063996;28;20032;-64
2023/03/25 07:27:26;;;;;;;15.65;11.40;;;16.00;61.00;;;;;;5072344;28;20458;-59
2023/03/25 07:29:52;;;;;;;14.43;11.40;;;16.10;61.00;;;;;;5060004;28;20028;-59
2023/03/25 07:32:18;;;;;;;13.60;11.32;;;16.20;60.90;;;;;;5071589;28;20056;-52
2023/03/25 07:34:44;;;;;;;13.48;11.07;;;16.20;60.80;;;;;;5072889;28;20029;-50
2023/03/25 07:37:09;;;;;;;15.75;11.63;;;16.30;60.80;;;;;;5071988;28;20024;-53
2023/03/25 07:39:35;;;;;;;12.90;10.35;;;16.30;60.70;;;;;;5071642;28;20028;-51
2023/03/25 07:42:01;;;;;;;13.38;10.50;;;16.30;60.70;;;;;;5071373;28;20028;-56
2023/03/25 07:44:26;;;;;;;15.20;12.45;;;16.40;60.70;;;;;;5071635;28;20028;-53
2023/03/25 07:46:52;;;;;;;15.68;11.73;;;16.40;60.60;;;;;;5072326;28;20801;-64
2023/03/25 07:49:18;;;;;;;13.73;11.23;;;16.40;60.80;;;;;;5071491;28;20382;-65
2023/03/25 07:51:44;;;;;;;16.58;12.70;;;16.40;60.70;;;;;;5071787;28;20529;-65
2023/03/25 07:54:10;;;;;;;14.77;12.20;;;16.40;60.70;;;;;;5071504;28;20032;-64
2023/03/25 07:56:36;;;;;;;13.63;11.23;;;16.30;60.70;;;;;;5078759;28;20029;-58
2023/03/25 07:59:02;;;;;;;14.50;12.65;;;16.30;60.80;;;;;;5071559;28;20062;-58
2023/03/25 08:01:28;;;;;;;14.65;12.63;;;16.30;60.90;;;;;;5070834;28;20052;-63
2023/03/25 08:03:53;;;;;;;13.73;11.30;;;16.40;61.00;;;;;;5075451;28;20067;-65
2023/03/25 08:06:19;;;;;;;15.32;11.32;;;16.40;61.20;;;;;;5071834;28;20367;-62
2023/03/25 08:08:45;;;;;;;17.83;12.70;;;16.40;61.10;;;;;;5068933;28;20045;-64
2023/03/25 08:11:11;;;;;;;16.23;12.48;;;16.50;61.20;;;;;;5071537;28;20063;-64
2023/03/25 08:13:37;;;;;;;13.10;11.38;;;16.50;61.10;;;;;;5071718;28;20484;-65
2023/03/25 08:16:08;;;;;;;13.43;11.85;;;16.50;61.20;;;;;;5071713;28;20375;-58
2023/03/25 08:18:34;;;;;;;12.70;10.95;;;16.60;61.00;;;;;;5071165;28;20170;-59
2023/03/25 08:21:00;;;;;;;13.50;11.00;;;16.60;60.90;;;;;;5070879;28;20028;-58
2023/03/25 08:23:25;;;;;;;15.80;12.10;;;16.60;60.60;;;;;;5074898;28;20144;-59
2023/03/25 08:25:52;;;;;;;15.70;11.30;;;16.60;60.50;;;;;;5071211;28;20040;-59
2023/03/25 08:28:22;;;;;;;13.82;11.15;;;16.60;60.60;;;;;;5071053;28;20070;-58
2023/03/25 08:30:53;;;;;;;14.00;11.43;;;16.50;60.70;;;;;;5071019;28;20032;-64
2023/03/25 08:33:20;;;;;;;14.90;12.55;;;16.50;60.70;;;;;;5070860;28;20056;-65
2023/03/25 08:35:46;;;;;;;13.60;11.30;;;16.50;60.70;;;;;;5074619;28;20040;-63
2023/03/25 08:38:12;;;;;;;15.93;12.13;;;16.50;60.80;;;;;;5074875;28;20081;-65
2023/03/25 08:40:42;;;;;;;15.00;11.88;;;16.50;60.80;;;;;;5075016;28;20542;-58
2023/03/25 08:43:08;;;;;;;14.07;11.38;;;16.50;60.80;;;;;;5075254;28;20032;-54
2023/03/25 08:45:35;;;;;;;13.88;10.35;;;16.60;60.90;;;;;;5074895;28;20028;-60
2023/03/25 08:48:01;;;;;;;15.93;12.68;;;16.60;60.80;;;;;;5074717;28;20033;-60
2023/03/25 08:50:27;;;;;;;17.38;13.20;;;16.60;60.60;;;;;;5057008;28;20356;-60
2023/03/25 08:52:56;;;;;;;21.05;14.88;;;16.60;60.70;;;;;;5074715;28;20021;-61
2023/03/25 08:55:22;;;;;;;21.55;14.15;;;16.60;60.80;;;;;;5081207;28;20036;-61
2023/03/25 08:57:48;;;;;;;18.33;12.95;;;16.60;61.50;;;;;;5073830;28;20689;-61
2023/03/25 09:00:13;;;;;;;16.70;11.10;;;16.60;60.70;;;;;;5056573;28;20027;-61
2023/03/25 09:02:41;;;;;;;13.77;11.07;;;16.60;60.70;;;;;;5078238;28;20020;-60
2023/03/25 09:05:11;;;;;;;13.85;10.57;;;16.60;60.60;;;;;;5082198;28;20123;-60
2023/03/25 09:07:37;;;;;;;14.35;11.60;;;16.60;60.60;;;;;;5074239;28;20116;-60
2023/03/25 09:10:04;;;;;;;18.27;11.68;;;16.60;60.70;;;;;;5072805;28;20036;-60
2023/03/25 09:12:30;;;;;;;14.43;11.15;;;16.60;60.70;;;;;;5073212;28;20021;-59
2023/03/25 09:14:55;;;;;;;17.75;12.70;;;16.60;60.80;;;;;;5051376;28;20031;-59
2023/03/25 09:17:21;;;;;;;22.13;14.55;;;16.60;60.90;;;;;;5074206;28;20147;-51
2023/03/25 09:19:47;;;;;;;21.05;14.25;;;16.60;61.00;;;;;;5073851;28;20068;-52
2023/03/25 09:22:13;;;;;;;22.75;16.02;;;16.60;60.90;;;;;;5073949;28;20028;-53
2023/03/25 09:24:39;;;;;;;26.75;15.80;;;16.70;61.70;;;;;;5078013;28;20045;-52
2023/03/25 09:27:05;;;;;;;27.88;16.38;;;16.80;61.00;;;;;;5073711;28;20379;-64
2023/03/25 09:29:31;;;;;;;22.08;14.82;;;16.80;61.00;;;;;;5074084;28;20039;-64
2023/03/25 09:31:59;;;;;;;18.88;12.00;;;16.90;60.90;;;;;;5074050;28;20035;-52
2023/03/25 09:34:26;;;;;;;17.85;11.38;;;16.90;60.70;;;;;;5069422;28;20107;-53
2023/03/25 09:36:53;;;;;;;13.15;9.95;;;17.00;60.70;;;;;;5072650;28;20423;-54
2023/03/25 09:39:19;;;;;;;12.35;9.57;;;17.00;60.70;;;;;;5073146;28;20028;-56
2023/03/25 09:42:10;;;;;;;18.50;10.80;;;17.10;60.50;;;;;;5061286;28;20032;-53
2023/03/25 09:44:48;;;;;;;10.85;8.77;;;17.20;60.10;;;;;;5061265;28;20024;-53
2023/03/25 09:47:15;;;;;;;11.40;9.38;;;17.30;60.00;;;;;;5072603;28;20459;-65
2023/03/25 09:49:44;;;;;;;13.65;10.20;;;17.30;60.00;;;;;;5073053;28;20024;-65
2023/03/25 09:52:28;;;;;;;13.70;9.90;;;17.30;59.70;;;;;;5073753;28;20090;-64
2023/03/25 09:55:01;;;;;;;12.82;10.05;;;17.30;59.70;;;;;;5076161;28;20028;-65
2023/03/25 09:57:32;;;;;;;11.27;9.70;;;17.30;59.70;;;;;;5077087;28;20115;-59
2023/03/25 10:00:00;;;;;;;12.73;11.15;;;17.30;59.60;;;;;;5073516;28;20086;-59
2023/03/25 10:02:38;;;;;;;12.70;10.73;;;17.40;59.70;;;;;;5075205;28;20059;-60
2023/03/25 10:05:30;;;;;;;12.55;10.35;;;17.40;59.60;;;;;;5069507;28;20468;-60
2023/03/25 10:08:20;;;;;;;12.20;10.75;;;17.40;59.50;;;;;;5065505;28;20103;-60
2023/03/25 10:10:45;;;;;;;16.30;12.60;;;17.40;59.70;;;;;;5073213;28;20081;-60
2023/03/25 10:13:20;;;;;;;16.20;12.07;;;17.40;59.60;;;;;;5073608;28;20123;-60
2023/03/25 10:16:19;;;;;;;14.65;12.15;;;17.40;59.50;;;;;;5073164;28;20033;-60
2023/03/25 10:18:57;;;;;;;16.10;12.68;;;17.50;59.70;;;;;;5071056;28;20147;-61
2023/03/25 10:21:40;;;;;;;16.00;11.60;;;17.50;59.40;;;;;;5072664;28;20020;-58
2023/03/25 10:24:40;;;;;;;12.65;11.02;;;17.60;59.50;;;;;;5069472;28;20211;-59
2023/03/25 10:27:23;;;;;;;11.38;10.13;;;17.60;59.40;;;;;;5072584;28;20036;-59
2023/03/25 10:30:22;;;;;;;11.57;9.82;;;17.70;59.30;;;;;;5072311;28;20021;-59
2023/03/25 10:32:53;;;;;;;12.05;9.18;;;17.70;59.30;;;;;;5068256;28;20728;-59
2023/03/25 10:35:20;;;;;;;;;;;17.80;59.30;;;;;;5073355;28;20111;-53
2023/03/25 10:37:50;;;;;;;13.57;10.55;;;17.80;59.30;;;;;;5072136;28;19950;-52
2023/03/25 10:40:21;;;;;;;13.95;10.15;;;17.90;59.30;;;;;;5054669;28;20762;-56
2023/03/25 10:43:04;;;;;;;13.90;9.93;;;18.00;59.20;;;;;;5072717;28;20387;-52
2023/03/25 10:45:31;;;;;;;11.05;9.52;;;18.00;59.00;;;;;;5072942;28;20033;-59
2023/03/25 10:48:24;;;;;;;12.20;9.95;;;18.10;59.00;;;;;;5073566;28;20020;-59
2023/03/25 10:51:01;;;;;;;15.68;11.27;;;18.10;58.90;;;;;;5068314;28;20534;-59
2023/03/25 10:53:27;;;;;;;13.77;9.77;;;18.10;58.80;;;;;;5061817;28;20649;-59
2023/03/25 10:56:12;;;;;;;16.95;11.32;;;18.20;58.90;;;;;;5062638;28;20044;-52
2023/03/25 10:58:40;;;;;;;16.17;10.55;;;18.30;58.90;;;;;;5069302;28;20034;-53
2023/03/25 11:01:16;;;;;;;11.10;8.65;;;18.30;58.80;;;;;;5071920;28;20040;-64
2023/03/25 11:03:43;;;;;;;12.93;7.68;;;18.30;58.60;;;;;;5085375;28;20471;-64
2023/03/25 11:06:44;;;;;;;8.52;7.20;;;18.30;58.50;;;;;;5072389;28;20024;-53
2023/03/25 11:09:14;;;;;;;;;;;18.40;58.50;;;;;;5024520;28;20036;-54
2023/03/25 11:11:42;;;;;;;11.88;8.05;;;18.30;58.30;;;;;;5071991;28;19958;-55
2023/03/25 11:14:08;;;;;;;11.35;8.80;;;18.30;58.40;;;;;;5072168;28;20071;-54
2023/03/25 11:16:42;;;;;;;15.65;9.10;;;18.30;58.40;;;;;;5071960;28;20371;-63
2023/03/25 11:19:19;;;;;;;10.07;7.20;;;18.40;58.30;;;;;;5059632;28;20029;-64
2023/03/25 11:21:47;;;;;;;9.50;7.10;;;18.40;58.30;;;;;;5072256;28;20062;-52
2023/03/25 11:24:17;;;;;;;9.50;7.88;;;18.40;58.20;;;;;;5076065;28;20068;-51
2023/03/25 11:26:47;;;;;;;11.70;8.13;;;18.40;58.00;;;;;;5072006;28;20166;-60
2023/03/25 11:29:18;;;;;;;7.80;6.32;;;18.50;58.00;;;;;;5071751;28;20048;-59
2023/03/25 11:31:55;;;;;;;11.07;7.35;;;18.50;58.00;;;;;;5071677;28;20028;-59
2023/03/25 11:34:22;;;;;;;8.60;6.28;;;18.50;57.80;;;;;;5056997;28;20033;-59
2023/03/25 11:36:59;;;;;;;9.27;7.50;;;18.50;57.70;;;;;;5070972;28;20040;-51
2023/03/25 11:39:25;;;;;;;7.80;6.50;;;18.60;57.60;;;;;;5070457;28;20024;-53
2023/03/25 11:41:51;;;;;;;9.05;6.20;;;18.60;57.60;;;;;;5060359;28;20469;-61
2023/03/25 11:44:28;;;;;;;7.90;6.70;;;18.60;57.40;;;;;;5069671;28;20036;-60
2023/03/25 11:47:20;;;;;;;7.00;5.93;;;18.70;57.30;;;;;;5072154;28;20111;-52
2023/03/25 11:49:48;;;;;;;10.43;6.13;;;18.70;57.10;;;;;;5071835;28;20040;-54
2023/03/25 11:52:38;;;;;;;8.77;5.82;;;18.70;57.10;;;;;;5071803;28;20033;-61
2023/03/25 11:55:04;;;;;;;10.65;7.35;;;18.80;56.90;;;;;;5064912;28;20032;-60
2023/03/25 11:57:37;;;;;;;12.60;8.93;;;18.80;57.00;;;;;;5070267;28;20032;-66
2023/03/25 12:00:15;;;;;;;11.88;7.35;;;18.80;57.50;;;;;;5071372;28;20039;-64
2023/03/25 12:02:41;;;;;;;9.90;6.78;;;18.80;56.70;;;;;;5075399;28;20392;-64
2023/03/25 12:05:07;;;;;;;7.70;6.28;;;18.80;56.60;;;;;;5078427;28;20028;-61
2023/03/25 12:07:44;;;;;;;8.07;6.18;;;18.80;56.30;;;;;;5070917;28;20032;-63
2023/03/25 12:10:16;;;;;;;7.50;6.40;;;18.80;56.20;;;;;;5073520;28;20482;-63
2023/03/25 12:13:06;;;;;;;8.40;6.15;;;18.80;56.20;;;;;;5075216;28;20028;-64
2023/03/25 12:15:42;;;;;;;9.15;6.20;;;18.80;56.00;;;;;;5075204;28;20043;-61
2023/03/25 12:18:30;;;;;;;10.27;6.75;;;18.90;56.00;;;;;;5069829;28;20028;-65
2023/03/25 12:21:13;;;;;;;10.13;6.25;;;18.90;55.90;;;;;;5066764;28;20029;-55
2023/03/25 12:23:52;;;;;;;7.70;6.15;;;18.80;55.70;;;;;;5078713;28;20044;-52
2023/03/25 12:26:30;;;;;;;7.13;5.95;;;18.90;55.70;;;;;;5075311;28;20025;-57
2023/03/25 12:29:33;;;;;;;8.02;6.15;;;18.90;55.70;;;;;;5066666;28;20020;-58
2023/03/25 12:32:25;;;;;;;9.10;6.65;;;19.00;55.60;;;;;;5075292;28;20028;-58
2023/03/25 12:35:13;;;;;;;8.48;5.90;;;19.00;55.50;;;;;;5070649;28;20024;-58
2023/03/25 12:38:05;;;;;;;8.65;6.40;;;19.00;55.40;;;;;;5074018;28;20032;-59
2023/03/25 12:40:57;;;;;;;9.18;6.57;;;19.10;55.40;;;;;;5064275;28;20031;-60
2023/03/25 12:43:55;;;;;;;8.02;6.35;;;19.10;55.50;;;;;;5062288;28;20032;-60
2023/03/25 12:46:21;;;;;;;6.68;5.45;;;19.10;55.60;;;;;;5070254;28;20020;-58
2023/03/25 12:49:05;;;;;;;8.27;6.18;;;19.10;55.60;;;;;;5073586;28;20641;-58
2023/03/25 12:51:51;;;;;;;8.20;6.20;;;19.20;55.50;;;;;;5062896;28;20066;-60
2023/03/25 12:54:43;;;;;;;6.68;5.30;;;19.20;55.50;;;;;;5079656;28;20025;-60
2023/03/25 12:57:54;;;;;;;6.72;4.80;;;19.20;55.40;;;;;;5072143;28;20414;-59
2023/03/25 13:00:26;;;;;;;7.05;5.30;;;19.20;55.30;;;;;;5070633;28;20072;-59